createdAt,value
2023-04-03T00:01:41.740Z,6.38
2023-04-03T00:04:12.381Z,6.39
2023-04-03T00:06:41.346Z,6.47
2023-04-03T00:09:11.592Z,6.40
2023-04-03T00:11:40.596Z,6.27
2023-04-03T00:14:09.534Z,6.18
2023-04-03T00:16:38.700Z,6.14
2023-04-03T00:19:07.637Z,6.12
2023-04-03T00:21:36.844Z,6.10
2023-04-03T00:24:07.042Z,6.06
2023-04-03T00:26:37.564Z,6.01
2023-04-03T00:29:06.480Z,5.96
2023-04-03T00:31:35.854Z,5.93
2023-04-03T00:34:05.009Z,5.87
2023-04-03T00:36:34.089Z,5.81
2023-04-03T00:39:03.306Z,5.77
2023-04-03T00:41:33.078Z,5.76
2023-04-03T00:44:03.468Z,5.72
2023-04-03T00:46:32.425Z,5.72
2023-04-03T00:49:01.691Z,5.71
2023-04-03T00:51:31.075Z,5.70
2023-04-03T00:54:03.207Z,5.68
2023-04-03T00:56:33.010Z,5.65
2023-04-03T00:59:08.554Z,5.59
2023-04-03T01:01:38.921Z,5.56
2023-04-03T01:04:08.203Z,5.54
2023-04-03T01:06:39.432Z,5.52
2023-04-03T01:09:10.772Z,5.47
2023-04-03T01:11:39.705Z,5.43
2023-04-03T01:14:10.528Z,5.42
2023-04-03T01:16:40.650Z,5.35
2023-04-03T01:19:14.741Z,5.28
2023-04-03T01:22:05.337Z,5.21
2023-04-03T01:24:37.275Z,5.09
2023-04-03T01:27:11.872Z,5.00
2023-04-03T01:29:44.634Z,4.84
2023-04-03T01:32:15.914Z,4.70
2023-04-03T01:34:45.240Z,4.62
2023-04-03T01:37:14.174Z,4.49
2023-04-03T01:39:43.277Z,4.38
2023-04-03T01:42:14.697Z,4.27
2023-04-03T01:44:47.375Z,4.21
2023-04-03T01:47:17.707Z,4.15
2023-04-03T01:49:46.798Z,4.15
2023-04-03T01:52:17.057Z,4.19
2023-04-03T01:54:46.056Z,4.18
2023-04-03T01:57:16.292Z,4.14
2023-04-03T01:59:46.154Z,4.13
2023-04-03T02:02:15.805Z,4.08
2023-04-03T02:04:46.093Z,4.06
2023-04-03T02:07:15.072Z,4.07
2023-04-03T02:09:44.003Z,4.08
2023-04-03T02:12:13.024Z,4.08
2023-04-03T02:14:42.124Z,4.05
2023-04-03T02:17:14.578Z,4.05
2023-04-03T02:19:43.509Z,4.09
2023-04-03T02:22:13.877Z,4.03
2023-04-03T02:24:42.803Z,3.97
2023-04-03T02:27:11.883Z,3.97
2023-04-03T02:29:40.938Z,3.91
2023-04-03T02:32:10.020Z,3.84
2023-04-03T02:34:39.337Z,3.76
2023-04-03T02:37:09.240Z,3.67
2023-04-03T02:39:40.663Z,3.58
2023-04-03T02:42:09.815Z,3.50
2023-04-03T02:44:39.999Z,3.49
2023-04-03T02:47:08.974Z,3.45
2023-04-03T02:49:37.941Z,3.39
2023-04-03T02:52:08.035Z,3.34
2023-04-03T02:54:37.208Z,3.25
2023-04-03T02:57:11.054Z,3.16
2023-04-03T02:59:41.578Z,3.07
2023-04-03T03:02:13.175Z,3.03
2023-04-03T03:04:42.245Z,3.04
2023-04-03T03:07:11.318Z,3.09
2023-04-03T03:09:40.294Z,3.15
2023-04-03T03:12:10.715Z,3.22
2023-04-03T03:14:39.781Z,3.28
2023-04-03T03:17:08.706Z,3.33
2023-04-03T03:19:37.694Z,3.36
2023-04-03T03:22:07.076Z,3.44
2023-04-03T03:24:36.063Z,3.49
2023-04-03T03:27:05.281Z,3.56
2023-04-03T03:29:36.198Z,3.61
2023-04-03T03:32:07.584Z,3.64
2023-04-03T03:34:37.003Z,3.66
2023-04-03T03:37:06.339Z,3.69
2023-04-03T03:39:35.608Z,3.71
2023-04-03T03:42:04.715Z,3.76
2023-04-03T03:44:35.261Z,3.76
2023-04-03T03:47:04.640Z,3.83
2023-04-03T03:49:34.081Z,3.86
2023-04-03T03:52:03.838Z,3.87
2023-04-03T03:54:32.717Z,3.86
2023-04-03T03:57:01.961Z,3.90
2023-04-03T03:59:33.154Z,3.98
2023-04-03T04:02:04.196Z,4.09
2023-04-03T04:04:33.229Z,4.18
2023-04-03T04:07:02.750Z,4.32
2023-04-03T04:09:33.293Z,4.46
2023-04-03T04:12:02.314Z,4.62
2023-04-03T04:14:33.888Z,4.78
2023-04-03T04:17:04.758Z,4.91
2023-04-03T04:19:34.300Z,5.07
2023-04-03T04:22:03.603Z,5.32
2023-04-03T04:24:34.310Z,5.52
2023-04-03T04:27:04.844Z,5.71
2023-04-03T04:29:36.902Z,5.93
2023-04-03T04:32:08.534Z,6.22
2023-04-03T04:34:38.027Z,6.56
2023-04-03T04:37:07.209Z,6.84
2023-04-03T04:39:37.086Z,7.04
2023-04-03T04:42:08.208Z,7.08
2023-04-03T04:44:38.037Z,7.12
2023-04-03T04:47:08.489Z,7.23
2023-04-03T04:49:37.595Z,7.32
2023-04-03T04:52:07.421Z,7.52
2023-04-03T04:54:37.318Z,7.49
2023-04-03T04:57:06.502Z,7.51
2023-04-03T04:59:35.786Z,7.31
2023-04-03T05:02:05.524Z,7.26
2023-04-03T05:04:36.059Z,7.18
2023-04-03T05:07:11.476Z,7.22
2023-04-03T05:09:43.325Z,7.26
2023-04-03T05:12:16.843Z,7.38
2023-04-03T05:14:51.841Z,7.43
2023-04-03T05:17:21.371Z,7.47
2023-04-03T05:19:55.362Z,7.38
2023-04-03T05:22:25.992Z,7.57
2023-04-03T05:24:58.383Z,7.68
2023-04-03T05:27:29.254Z,7.69
2023-04-03T05:30:00.995Z,7.66
2023-04-03T05:32:32.410Z,7.54
2023-04-03T05:35:20.649Z,7.50
2023-04-03T05:37:53.347Z,7.72
2023-04-03T05:40:23.676Z,7.87
2023-04-03T05:42:55.723Z,8.02
2023-04-03T05:45:27.108Z,8.15
2023-04-03T05:47:56.239Z,8.40
2023-04-03T05:50:27.519Z,8.67
2023-04-03T05:52:59.976Z,8.97
2023-04-03T05:55:31.688Z,9.00
2023-04-03T05:58:00.814Z,9.12
2023-04-03T06:00:30.849Z,9.29
2023-04-03T06:03:04.553Z,9.42
2023-04-03T06:05:36.647Z,9.74
2023-04-03T06:08:06.862Z,9.93
2023-04-03T06:10:36.270Z,9.88
2023-04-03T06:13:07.893Z,9.97
2023-04-03T06:15:36.949Z,10.16
2023-04-03T06:18:06.155Z,10.19
2023-04-03T06:20:37.405Z,10.57
2023-04-03T06:23:11.696Z,10.72
2023-04-03T06:25:42.034Z,10.47
2023-04-03T06:28:15.628Z,10.46
2023-04-03T06:30:45.424Z,10.63
2023-04-03T06:33:14.701Z,10.47
2023-04-03T06:35:46.080Z,10.52
2023-04-03T06:38:15.169Z,10.60
2023-04-03T06:40:48.275Z,10.68
2023-04-03T06:43:17.351Z,10.65
2023-04-03T06:45:46.425Z,10.61
2023-04-03T06:48:15.774Z,10.67
2023-04-03T06:50:46.489Z,10.98
2023-04-03T06:53:15.912Z,11.24
2023-04-03T06:55:45.141Z,11.54
2023-04-03T06:58:14.949Z,11.40
2023-04-03T07:00:46.385Z,11.86
2023-04-03T07:03:15.786Z,11.78
2023-04-03T07:05:47.009Z,11.85
2023-04-03T07:08:16.528Z,12.04
2023-04-03T07:10:46.120Z,12.48
2023-04-03T07:13:15.863Z,12.53
2023-04-03T07:15:45.377Z,12.79
2023-04-03T07:18:14.916Z,12.31
2023-04-03T07:20:45.898Z,12.64
2023-04-03T07:23:16.148Z,12.40
2023-04-03T07:25:46.923Z,12.88
2023-04-03T07:28:16.806Z,12.85
2023-04-03T07:30:47.014Z,12.67
2023-04-03T07:33:19.723Z,12.31
2023-04-03T07:35:51.317Z,12.54
2023-04-03T07:38:21.073Z,12.48
2023-04-03T07:40:53.875Z,12.56
2023-04-03T07:43:25.954Z,12.40
2023-04-03T07:45:55.623Z,12.47
2023-04-03T07:48:25.891Z,12.79
2023-04-03T07:50:56.798Z,13.13
2023-04-03T07:53:27.171Z,13.25
2023-04-03T07:55:58.028Z,13.54
2023-04-03T07:58:27.921Z,13.47
2023-04-03T08:00:58.511Z,13.76
2023-04-03T08:03:28.091Z,13.84
2023-04-03T08:06:06.134Z,13.89
2023-04-03T08:08:36.579Z,13.84
2023-04-03T08:11:07.146Z,14.13
2023-04-03T08:13:37.270Z,14.16
2023-04-03T08:16:11.365Z,14.21
2023-04-03T08:18:41.312Z,14.04
2023-04-03T08:21:14.110Z,14.19
2023-04-03T08:23:44.173Z,14.37
2023-04-03T08:26:15.667Z,14.48
2023-04-03T08:28:44.766Z,14.57
2023-04-03T08:31:16.760Z,14.56
2023-04-03T08:33:45.873Z,14.60
2023-04-03T08:36:22.537Z,14.76
2023-04-03T08:38:52.801Z,14.71
2023-04-03T08:41:31.916Z,14.84
2023-04-03T08:44:17.487Z,14.69
2023-04-03T08:47:02.624Z,14.75
2023-04-03T08:49:35.045Z,14.37
2023-04-03T08:52:12.227Z,14.20
2023-04-03T08:54:52.436Z,14.37
2023-04-03T08:57:34.613Z,14.51
2023-04-03T09:00:09.166Z,14.24
2023-04-03T09:02:47.242Z,14.21
2023-04-03T09:05:20.046Z,14.10
2023-04-03T09:07:58.124Z,14.38
2023-04-03T09:10:32.439Z,14.79
2023-04-03T09:13:08.306Z,14.89
2023-04-03T09:15:39.395Z,14.46
2023-04-03T09:18:33.088Z,14.21
2023-04-03T09:21:10.332Z,14.11
2023-04-03T09:23:47.019Z,14.29
2023-04-03T09:26:20.415Z,14.57
2023-04-03T09:28:51.200Z,14.79
2023-04-03T09:31:25.943Z,15.23
2023-04-03T09:33:59.161Z,15.24
2023-04-03T09:36:42.757Z,15.47
2023-04-03T09:39:17.158Z,15.58
2023-04-03T09:41:59.129Z,15.66
2023-04-03T09:44:29.968Z,15.79
2023-04-03T09:46:59.676Z,15.75
2023-04-03T09:49:29.068Z,15.82
2023-04-03T09:51:58.156Z,15.52
2023-04-03T09:54:35.631Z,15.90
2023-04-03T09:57:09.640Z,15.53
2023-04-03T09:59:44.086Z,15.19
2023-04-03T10:02:31.410Z,15.52
2023-04-03T10:05:09.363Z,15.84
2023-04-03T10:08:10.497Z,15.23
2023-04-03T10:10:42.212Z,15.67
2023-04-03T10:13:21.005Z,16.21
2023-04-03T10:15:57.677Z,16.45
2023-04-03T10:18:35.676Z,16.51
2023-04-03T10:21:14.528Z,16.39
2023-04-03T10:23:57.058Z,16.76
2023-04-03T10:26:35.888Z,16.32
2023-04-03T10:29:14.656Z,16.26
2023-04-03T10:31:53.651Z,15.74
2023-04-03T10:34:27.583Z,15.73
2023-04-03T10:37:02.610Z,15.90
2023-04-03T10:39:41.658Z,16.05
2023-04-03T10:42:18.052Z,15.98
2023-04-03T10:45:00.503Z,15.80
2023-04-03T10:47:39.396Z,15.97
2023-04-03T10:50:25.805Z,15.97
2023-04-03T10:53:00.189Z,16.04
2023-04-03T10:55:38.407Z,16.16
2023-04-03T10:58:14.523Z,16.35
2023-04-03T11:00:48.178Z,16.31
2023-04-03T11:03:27.720Z,16.15
2023-04-03T11:05:59.819Z,16.49
2023-04-03T11:08:36.112Z,16.69
2023-04-03T11:11:09.827Z,16.33
2023-04-03T11:13:46.067Z,16.49
2023-04-03T11:16:21.648Z,16.28
2023-04-03T11:18:55.004Z,16.31
2023-04-03T11:21:31.880Z,16.52
2023-04-03T11:24:05.552Z,16.78
2023-04-03T11:26:41.475Z,16.55
2023-04-03T11:29:28.210Z,16.62
2023-04-03T11:32:14.897Z,15.81
2023-04-03T11:34:48.053Z,16.10
2023-04-03T11:37:28.264Z,16.26
2023-04-03T11:40:06.298Z,16.16
2023-04-03T11:42:39.183Z,16.36
2023-04-03T11:45:52.221Z,16.11
2023-04-03T11:48:52.799Z,15.87
2023-04-03T11:51:48.039Z,16.05
2023-04-03T11:54:53.520Z,16.09
2023-04-03T11:57:47.463Z,15.73
2023-04-03T12:01:01.335Z,15.49
2023-04-03T12:04:11.858Z,15.22
2023-04-03T12:07:05.598Z,14.92
2023-04-03T12:09:56.801Z,14.61
2023-04-03T12:13:00.179Z,14.34
2023-04-03T12:15:52.024Z,14.08
2023-04-03T12:19:05.772Z,13.82
2023-04-03T12:22:21.813Z,13.58
2023-04-03T12:24:52.837Z,13.64
2023-04-03T12:27:30.070Z,13.69
2023-04-03T12:30:06.747Z,13.64
2023-04-03T12:32:56.273Z,13.72
2023-04-03T12:35:38.567Z,13.69
2023-04-03T12:38:43.311Z,13.61
2023-04-03T12:41:33.523Z,13.63
2023-04-03T12:44:18.453Z,13.33
2023-04-03T12:46:50.648Z,13.25
2023-04-03T12:49:36.286Z,13.19
2023-04-03T12:52:19.129Z,13.25
2023-04-03T12:54:49.825Z,13.09
2023-04-03T12:57:21.187Z,12.92
2023-04-03T12:59:50.870Z,12.88
2023-04-03T13:02:25.792Z,12.86
2023-04-03T13:04:58.952Z,12.93
2023-04-03T13:07:34.586Z,12.84
2023-04-03T13:10:16.330Z,12.72
2023-04-03T13:12:50.756Z,12.96
2023-04-03T13:15:23.773Z,12.91
2023-04-03T13:17:53.990Z,13.10
2023-04-03T13:20:27.256Z,13.27
2023-04-03T13:23:01.638Z,13.23
2023-04-03T13:25:35.232Z,13.31
2023-04-03T13:28:13.699Z,13.24
2023-04-03T13:31:04.535Z,13.06
2023-04-03T13:33:38.803Z,13.09
2023-04-03T13:36:11.408Z,12.93
2023-04-03T13:38:41.921Z,12.76
2023-04-03T13:41:27.146Z,12.80
2023-04-03T13:44:03.327Z,12.88
2023-04-03T13:46:35.851Z,12.80
2023-04-03T13:49:21.631Z,12.65
2023-04-03T13:52:04.376Z,12.64
2023-04-03T13:54:41.161Z,12.52
2023-04-03T13:57:16.331Z,12.40
2023-04-03T13:59:45.450Z,12.46
2023-04-03T14:02:22.401Z,12.59
2023-04-03T14:04:57.625Z,12.42
2023-04-03T14:07:28.180Z,12.30
2023-04-03T14:09:58.626Z,12.30
2023-04-03T14:12:32.196Z,12.30
2023-04-03T14:15:07.012Z,12.30
2023-04-03T14:17:36.297Z,12.31
2023-04-03T14:20:06.374Z,12.38
2023-04-03T14:22:35.981Z,12.47
2023-04-03T14:25:07.466Z,12.44
2023-04-03T14:27:40.113Z,12.40
2023-04-03T14:30:15.240Z,12.33
2023-04-03T14:32:44.084Z,12.31
2023-04-03T14:35:13.114Z,12.28
2023-04-03T14:37:42.450Z,12.17
2023-04-03T14:40:16.549Z,12.06
2023-04-03T14:43:23.235Z,11.91
2023-04-03T14:45:53.313Z,11.85
2023-04-03T14:48:25.650Z,11.87
2023-04-03T14:51:05.133Z,11.89
2023-04-03T14:53:39.156Z,11.87
2023-04-03T14:56:16.796Z,11.75
2023-04-03T14:58:50.426Z,11.61
2023-04-03T15:01:20.334Z,11.43
2023-04-03T15:03:49.700Z,11.36
2023-04-03T15:06:19.095Z,11.30
2023-04-03T15:08:49.811Z,11.24
2023-04-03T15:11:21.258Z,11.14
2023-04-03T15:13:50.556Z,11.02
2023-04-03T15:16:21.747Z,10.92
2023-04-03T15:18:51.572Z,10.82
2023-04-03T15:21:20.733Z,10.75
2023-04-03T15:23:49.876Z,10.72
2023-04-03T15:26:21.842Z,10.65
2023-04-03T15:28:52.394Z,10.63
2023-04-03T15:31:21.481Z,10.66
2023-04-03T15:33:50.629Z,10.66
2023-04-03T15:36:33.556Z,10.61
2023-04-03T15:39:04.289Z,10.57
2023-04-03T15:41:35.530Z,10.47
2023-04-03T15:44:05.015Z,10.34
2023-04-03T15:46:35.726Z,10.27
2023-04-03T15:49:04.865Z,10.22
2023-04-03T15:51:34.361Z,10.16
2023-04-03T15:54:03.461Z,10.14
2023-04-03T15:56:32.644Z,10.08
2023-04-03T15:59:03.229Z,10.04
2023-04-03T16:01:33.430Z,10.04
2023-04-03T16:04:03.062Z,9.96
2023-04-03T16:06:34.584Z,9.91
2023-04-03T16:09:03.946Z,9.88
2023-04-03T16:11:33.780Z,9.86
2023-04-03T16:14:04.798Z,9.89
2023-04-03T16:16:34.241Z,9.90
2023-04-03T16:19:03.485Z,9.88
2023-04-03T16:21:33.914Z,9.80
2023-04-03T16:24:03.990Z,9.65
2023-04-03T16:26:33.479Z,9.52
2023-04-03T16:29:04.160Z,9.40
2023-04-03T16:31:35.700Z,9.28
2023-04-03T16:34:05.074Z,9.21
2023-04-03T16:36:34.666Z,9.16
2023-04-03T16:39:04.401Z,9.09
2023-04-03T16:41:33.856Z,9.01
2023-04-03T16:44:04.467Z,8.97
2023-04-03T16:46:33.815Z,8.97
2023-04-03T16:49:03.298Z,8.95
2023-04-03T16:51:33.131Z,8.97
2023-04-03T16:54:02.359Z,9.00
2023-04-03T16:56:31.863Z,8.97
2023-04-03T16:59:01.134Z,8.97
2023-04-03T17:01:32.101Z,8.94
2023-04-03T17:04:01.621Z,9.02
2023-04-03T17:06:32.066Z,9.10
2023-04-03T17:09:01.369Z,9.19
2023-04-03T17:11:31.544Z,9.10
2023-04-03T17:14:01.252Z,8.95
2023-04-03T17:16:39.207Z,8.77
2023-04-03T17:19:08.569Z,8.65
2023-04-03T17:21:38.459Z,8.57
2023-04-03T17:24:09.833Z,8.52
2023-04-03T17:26:39.175Z,8.46
2023-04-03T17:29:08.679Z,8.45
2023-04-03T17:31:39.635Z,8.43
2023-04-03T17:34:12.075Z,8.45
2023-04-03T17:36:43.294Z,8.54
2023-04-03T17:39:12.879Z,8.60
2023-04-03T17:41:42.571Z,8.70
2023-04-03T17:44:12.117Z,8.81
2023-04-03T17:46:43.163Z,8.96
2023-04-03T17:49:15.164Z,8.97
2023-04-03T17:51:44.639Z,8.93
2023-04-03T17:54:14.337Z,8.90
2023-04-03T17:56:48.555Z,8.84
2023-04-03T17:59:19.288Z,8.75
2023-04-03T18:01:51.402Z,8.57
2023-04-03T18:04:20.813Z,8.33
2023-04-03T18:06:52.500Z,8.10
2023-04-03T18:09:24.098Z,8.00
2023-04-03T18:11:54.562Z,7.92
2023-04-03T18:14:26.819Z,7.80
2023-04-03T18:16:59.060Z,7.69
2023-04-03T18:19:30.015Z,7.60
2023-04-03T18:22:02.275Z,7.55
2023-04-03T18:24:34.544Z,7.55
2023-04-03T18:27:07.956Z,7.55
2023-04-03T18:29:40.458Z,7.49
2023-04-03T18:32:14.826Z,7.56
2023-04-03T18:34:45.167Z,7.50
2023-04-03T18:37:16.130Z,7.45
2023-04-03T18:39:46.795Z,7.44
2023-04-03T18:42:18.585Z,7.44
2023-04-03T18:44:51.892Z,7.41
2023-04-03T18:47:23.001Z,7.36
2023-04-03T18:49:52.642Z,7.30
2023-04-03T18:52:21.906Z,7.21
2023-04-03T18:54:51.067Z,7.14
2023-04-03T18:57:20.336Z,7.15
2023-04-03T18:59:49.531Z,7.04
2023-04-03T19:02:20.258Z,6.99
2023-04-03T19:04:51.271Z,6.98
2023-04-03T19:07:21.269Z,6.95
2023-04-03T19:09:50.637Z,6.88
2023-04-03T19:12:22.204Z,6.81
2023-04-03T19:14:51.692Z,6.77
2023-04-03T19:17:21.874Z,6.76
2023-04-03T19:19:54.026Z,6.75
2023-04-03T19:22:23.782Z,6.73
2023-04-03T19:24:52.940Z,6.73
2023-04-03T19:27:22.104Z,6.70
2023-04-03T19:29:51.567Z,6.67
2023-04-03T19:32:20.763Z,6.59
2023-04-03T19:34:51.267Z,6.54
2023-04-03T19:37:21.747Z,6.50
2023-04-03T19:39:50.772Z,6.46
2023-04-03T19:42:20.348Z,6.43
2023-04-03T19:44:50.540Z,6.44
2023-04-03T19:47:22.196Z,6.54
2023-04-03T19:49:52.988Z,6.47
2023-04-03T19:52:23.303Z,6.45
2023-04-03T19:54:52.999Z,6.38
2023-04-03T19:57:22.442Z,6.34
2023-04-03T19:59:51.652Z,6.29
2023-04-03T20:02:21.906Z,6.25
2023-04-03T20:04:52.350Z,6.23
2023-04-03T20:07:21.474Z,6.22
2023-04-03T20:09:50.690Z,6.23
2023-04-03T20:12:20.042Z,6.24
2023-04-03T20:14:49.606Z,6.25
2023-04-03T20:17:19.227Z,6.21
2023-04-03T20:19:49.324Z,6.21
2023-04-03T20:22:19.896Z,6.23
2023-04-03T20:24:49.130Z,6.25
2023-04-03T20:27:18.728Z,6.23
2023-04-03T20:29:47.994Z,6.21
2023-04-03T20:32:17.472Z,6.21
2023-04-03T20:34:57.423Z,6.17
2023-04-03T20:37:34.647Z,6.14
2023-04-03T20:40:05.437Z,6.12
2023-04-03T20:42:35.698Z,6.07
2023-04-03T20:45:07.282Z,6.09
2023-04-03T20:47:38.224Z,6.09
2023-04-03T20:50:08.717Z,6.10
2023-04-03T20:52:40.883Z,6.10
2023-04-03T20:55:10.658Z,6.13
2023-04-03T20:57:39.997Z,6.12
2023-04-03T21:00:10.877Z,6.13
2023-04-03T21:02:46.172Z,6.13
2023-04-03T21:05:17.014Z,6.08
2023-04-03T21:08:23.283Z,5.96
2023-04-03T21:11:32.730Z,5.90
2023-04-03T21:14:39.394Z,5.85
2023-04-03T21:17:08.087Z,5.85
2023-04-03T21:19:46.245Z,5.90
2023-04-03T21:22:17.122Z,5.94
2023-04-03T21:24:46.508Z,5.96
2023-04-03T21:27:16.086Z,5.96
2023-04-03T21:29:45.673Z,5.99
2023-04-03T21:32:15.034Z,6.00
2023-04-03T21:34:45.935Z,5.99
2023-04-03T21:37:15.220Z,5.95
2023-04-03T21:39:45.217Z,5.95
2023-04-03T21:42:17.222Z,5.93
2023-04-03T21:44:49.348Z,5.90
2023-04-03T21:47:19.089Z,5.83
2023-04-03T21:49:49.889Z,5.82
2023-04-03T21:52:19.301Z,5.79
2023-04-03T21:54:48.713Z,5.71
2023-04-03T21:57:17.834Z,5.67
2023-04-03T21:59:47.020Z,5.63
2023-04-03T22:02:16.318Z,5.62
2023-04-03T22:04:45.831Z,5.65
2023-04-03T22:07:16.405Z,5.69
2023-04-03T22:09:45.524Z,5.68
2023-04-03T22:12:15.832Z,5.65
2023-04-03T22:14:44.937Z,5.66
2023-04-03T22:17:14.640Z,5.67
2023-04-03T22:19:43.679Z,5.63
2023-04-03T22:22:12.846Z,5.54
2023-04-03T22:24:43.662Z,5.57
2023-04-03T22:27:13.174Z,5.57
2023-04-03T22:29:42.586Z,5.56
2023-04-03T22:32:11.767Z,5.57
2023-04-03T22:34:41.314Z,5.64
2023-04-03T22:37:10.674Z,5.69
2023-04-03T22:39:40.851Z,5.73
2023-04-03T22:42:11.931Z,5.77
2023-04-03T22:44:42.690Z,5.83
2023-04-03T22:47:13.218Z,5.84
2023-04-03T22:49:42.672Z,5.80
2023-04-03T22:52:11.872Z,5.84
2023-04-03T22:54:41.317Z,5.83
2023-04-03T22:57:11.952Z,5.85
2023-04-03T22:59:41.318Z,5.89
2023-04-03T23:02:13.016Z,5.91
2023-04-03T23:04:42.696Z,5.90
2023-04-03T23:07:12.427Z,5.90
2023-04-03T23:09:42.276Z,5.91
2023-04-03T23:12:40.276Z,5.94
2023-04-03T23:15:10.065Z,5.91
2023-04-03T23:17:39.555Z,5.96
2023-04-03T23:20:10.360Z,5.84
2023-04-03T23:22:39.800Z,5.76
2023-04-03T23:25:09.588Z,5.73
2023-04-03T23:27:40.274Z,5.69
2023-04-03T23:30:10.805Z,5.60
2023-04-03T23:32:44.610Z,5.59
2023-04-03T23:35:13.769Z,5.58
2023-04-03T23:37:43.062Z,5.57
2023-04-03T23:40:13.161Z,5.58
2023-04-03T23:42:44.011Z,5.52
2023-04-03T23:45:13.262Z,5.46
2023-04-03T23:47:42.531Z,5.43
2023-04-03T23:50:12.741Z,5.46
2023-04-03T23:52:42.089Z,5.42
2023-04-03T23:55:11.468Z,5.42
2023-04-03T23:57:44.459Z,5.35
